BAW612 EGLL-LIRP
Flight info
| Callsign | BAW612 |
|---|---|
| Flight time | 1h 52m |
| Altitude | 39000 |
| Route | MAXIT Y803 MID L612 BOGNA UL612 OGULO DCT OKASI DCT OKEKO DCT MOU DCT MADIV DCT MOKIP DCT TUFTA DCT GEVEA DCT MOBLO DCT LURAG DCT OBUXA DCT ANAKI DCT IXITO DCT UNITA DCT KONER |
| Aircraft | A319/M-SDE3FGIJ1KRWXY/LB1 |
Departure
| Time | 2026-05-05 12:53 |
|---|---|
| Airport | London Heathrow Airport (EGLL) |
Arrival
| Time | 2026-05-05 14:46 |
|---|---|
| Airport | Pisa International Airport (LIRP) |
| Time | Latitude | Longitude | Altitude | Speed | Heading |
|---|---|---|---|---|---|
| 2026-05-05 12:18 | 51.47398 | -0.48757 | 90 ft | 0 kts | 180° |
| 2026-05-05 12:44 | 51.47399 | -0.48757 | 86 ft | 1 kts | 180° |
| 2026-05-05 12:44 | 51.47424 | -0.48757 | 86 ft | 4 kts | 180° |
| 2026-05-05 12:44 | 51.47450 | -0.48758 | 86 ft | 3 kts | 180° |
| 2026-05-05 12:44 | 51.47471 | -0.48760 | 87 ft | 4 kts | 155° |
| 2026-05-05 12:45 | 51.47486 | -0.48785 | 87 ft | 4 kts | 93° |
| 2026-05-05 12:45 | 51.47486 | -0.48819 | 87 ft | 1 kts | 90° |
| 2026-05-05 12:48 | 51.47486 | -0.48818 | 87 ft | 1 kts | 90° |
| 2026-05-05 12:48 | 51.47486 | -0.48785 | 87 ft | 5 kts | 90° |
| 2026-05-05 12:49 | 51.47487 | -0.48697 | 88 ft | 10 kts | 90° |
| 2026-05-05 12:49 | 51.47487 | -0.48553 | 87 ft | 13 kts | 90° |
| 2026-05-05 12:49 | 51.47480 | -0.48483 | 90 ft | 4 kts | 142° |
| 2026-05-05 12:49 | 51.47419 | -0.48475 | 86 ft | 13 kts | 180° |
| 2026-05-05 12:50 | 51.47315 | -0.48474 | 86 ft | 17 kts | 183° |
| 2026-05-05 12:50 | 51.47189 | -0.48477 | 86 ft | 17 kts | 180° |
| 2026-05-05 12:50 | 51.47080 | -0.48472 | 88 ft | 16 kts | 179° |
| 2026-05-05 12:50 | 51.46957 | -0.48470 | 88 ft | 6 kts | 179° |
| 2026-05-05 12:51 | 51.46907 | -0.48469 | 89 ft | 9 kts | 179° |
| 2026-05-05 12:51 | 51.46826 | -0.48468 | 86 ft | 14 kts | 179° |
| 2026-05-05 12:51 | 51.46715 | -0.48467 | 86 ft | 18 kts | 180° |
| 2026-05-05 12:51 | 51.46607 | -0.48467 | 86 ft | 15 kts | 180° |
| 2026-05-05 12:52 | 51.46513 | -0.48467 | 87 ft | 10 kts | 179° |
| 2026-05-05 12:52 | 51.46475 | -0.48418 | 89 ft | 10 kts | 83° |
| 2026-05-05 12:52 | 51.46482 | -0.48255 | 89 ft | 27 kts | 85° |
| 2026-05-05 12:52 | 51.46480 | -0.47551 | 85 ft | 96 kts | 90° |
| 2026-05-05 12:53 | 51.46491 | -0.46182 | 88 ft | 151 kts | 89° |
| 2026-05-05 12:53 | 51.46487 | -0.44399 | 557 ft | 159 kts | 85° |
| 2026-05-05 12:53 | 51.46500 | -0.42615 | 1314 ft | 161 kts | 87° |
| 2026-05-05 12:53 | 51.46168 | -0.40795 | 1737 ft | 188 kts | 122° |
| 2026-05-05 12:54 | 51.44057 | -0.37504 | 2462 ft | 244 kts | 155° |
| 2026-05-05 12:54 | 51.42393 | -0.36510 | 3143 ft | 263 kts | 159° |
| 2026-05-05 12:54 | 51.40596 | -0.35809 | 4107 ft | 271 kts | 177° |
| 2026-05-05 12:55 | 51.38743 | -0.36408 | 5120 ft | 279 kts | 203° |
| 2026-05-05 12:55 | 51.37001 | -0.37789 | 6231 ft | 279 kts | 206° |
| 2026-05-05 12:55 | 51.35259 | -0.39185 | 7234 ft | 281 kts | 206° |
| 2026-05-05 12:55 | 51.33500 | -0.40583 | 8222 ft | 284 kts | 206° |
| 2026-05-05 12:56 | 51.31716 | -0.41995 | 9148 ft | 288 kts | 206° |
| 2026-05-05 12:56 | 51.29909 | -0.43416 | 10062 ft | 292 kts | 206° |
| 2026-05-05 12:56 | 51.28018 | -0.44896 | 10458 ft | 315 kts | 205° |
| 2026-05-05 12:56 | 51.25983 | -0.46494 | 10828 ft | 334 kts | 206° |
| 2026-05-05 12:57 | 51.23882 | -0.48164 | 11505 ft | 341 kts | 206° |
| 2026-05-05 12:57 | 51.21744 | -0.49863 | 12258 ft | 345 kts | 205° |
| 2026-05-05 12:57 | 51.19595 | -0.51544 | 12940 ft | 352 kts | 205° |
| 2026-05-05 12:57 | 51.17380 | -0.53260 | 13672 ft | 356 kts | 205° |
| 2026-05-05 12:58 | 51.15136 | -0.54987 | 14330 ft | 360 kts | 205° |
| 2026-05-05 12:58 | 51.12867 | -0.56736 | 15045 ft | 362 kts | 205° |
| 2026-05-05 12:58 | 51.10583 | -0.58467 | 15715 ft | 365 kts | 202° |
| 2026-05-05 12:58 | 51.08143 | -0.59618 | 16367 ft | 367 kts | 188° |
| 2026-05-05 12:59 | 51.05596 | -0.59851 | 17058 ft | 368 kts | 175° |
| 2026-05-05 12:59 | 51.03070 | -0.59131 | 17739 ft | 370 kts | 162° |
| 2026-05-05 12:59 | 51.00720 | -0.57490 | 18381 ft | 371 kts | 148° |
| 2026-05-05 13:00 | 50.96398 | -0.52894 | 19550 ft | 377 kts | 146° |
| 2026-05-05 13:00 | 50.94211 | -0.50559 | 20136 ft | 380 kts | 146° |
| 2026-05-05 13:01 | 50.87540 | -0.43472 | 21841 ft | 389 kts | 146° |
| 2026-05-05 13:01 | 50.85309 | -0.41112 | 22364 ft | 393 kts | 146° |
| 2026-05-05 13:01 | 50.83026 | -0.38698 | 22905 ft | 396 kts | 147° |
| 2026-05-05 13:01 | 50.80723 | -0.36264 | 23437 ft | 400 kts | 147° |
| 2026-05-05 13:02 | 50.78402 | -0.33814 | 23894 ft | 402 kts | 147° |
| 2026-05-05 13:02 | 50.76063 | -0.31349 | 24372 ft | 404 kts | 147° |
| 2026-05-05 13:02 | 50.73726 | -0.28883 | 24865 ft | 405 kts | 147° |
| 2026-05-05 13:02 | 50.71379 | -0.26409 | 25349 ft | 405 kts | 147° |
| 2026-05-05 13:03 | 50.69027 | -0.23932 | 25838 ft | 407 kts | 147° |
| 2026-05-05 13:03 | 50.66667 | -0.21448 | 26300 ft | 408 kts | 147° |
| 2026-05-05 13:03 | 50.64302 | -0.18964 | 26765 ft | 409 kts | 147° |
| 2026-05-05 13:03 | 50.61961 | -0.16512 | 27205 ft | 411 kts | 147° |
| 2026-05-05 13:04 | 50.59573 | -0.14012 | 27654 ft | 412 kts | 147° |
| 2026-05-05 13:04 | 50.57150 | -0.11478 | 28120 ft | 414 kts | 147° |
| 2026-05-05 13:04 | 50.54776 | -0.09000 | 28563 ft | 415 kts | 147° |
| 2026-05-05 13:04 | 50.52365 | -0.06494 | 29009 ft | 416 kts | 147° |
| 2026-05-05 13:05 | 50.49945 | -0.03985 | 29454 ft | 418 kts | 148° |
| 2026-05-05 13:05 | 50.47514 | -0.01464 | 29887 ft | 419 kts | 148° |
| 2026-05-05 13:05 | 50.45075 | 0.01065 | 30220 ft | 422 kts | 147° |
| 2026-05-05 13:05 | 50.42622 | 0.03610 | 30524 ft | 424 kts | 147° |
| 2026-05-05 13:06 | 50.40155 | 0.06166 | 30821 ft | 427 kts | 147° |
| 2026-05-05 13:06 | 50.37670 | 0.08741 | 31119 ft | 429 kts | 147° |
| 2026-05-05 13:06 | 50.35175 | 0.11325 | 31410 ft | 431 kts | 147° |
| 2026-05-05 13:06 | 50.32665 | 0.13922 | 31695 ft | 434 kts | 147° |
| 2026-05-05 13:07 | 50.30148 | 0.16517 | 32083 ft | 433 kts | 148° |
| 2026-05-05 13:07 | 50.27628 | 0.19105 | 32497 ft | 433 kts | 148° |
| 2026-05-05 13:07 | 50.25106 | 0.21689 | 32907 ft | 432 kts | 148° |
| 2026-05-05 13:07 | 50.22591 | 0.24260 | 33316 ft | 432 kts | 148° |
| 2026-05-05 13:08 | 50.20109 | 0.26801 | 33734 ft | 431 kts | 148° |
| 2026-05-05 13:08 | 50.17606 | 0.29373 | 34160 ft | 430 kts | 148° |
| 2026-05-05 13:08 | 50.15115 | 0.31938 | 34545 ft | 429 kts | 148° |
| 2026-05-05 13:08 | 50.12624 | 0.34503 | 34858 ft | 429 kts | 148° |
| 2026-05-05 13:09 | 50.10132 | 0.37067 | 35145 ft | 430 kts | 148° |
| 2026-05-05 13:09 | 50.07625 | 0.39637 | 35426 ft | 431 kts | 148° |
| 2026-05-05 13:09 | 50.05118 | 0.42203 | 35696 ft | 431 kts | 148° |
| 2026-05-05 13:09 | 50.02605 | 0.44768 | 35960 ft | 432 kts | 148° |
| 2026-05-05 13:10 | 50.00092 | 0.47331 | 36226 ft | 433 kts | 148° |
| 2026-05-05 13:10 | 49.97572 | 0.49899 | 36493 ft | 433 kts | 148° |
| 2026-05-05 13:10 | 49.95052 | 0.52466 | 36766 ft | 433 kts | 148° |
| 2026-05-05 13:10 | 49.92525 | 0.55035 | 36906 ft | 434 kts | 148° |
| 2026-05-05 13:11 | 49.87481 | 0.60149 | 36920 ft | 433 kts | 148° |
| 2026-05-05 13:11 | 49.82673 | 0.65765 | 36927 ft | 433 kts | 142° |
| 2026-05-05 13:12 | 49.78018 | 0.71648 | 36919 ft | 431 kts | 142° |
| 2026-05-05 13:12 | 49.73347 | 0.77512 | 36918 ft | 433 kts | 142° |
| 2026-05-05 13:13 | 49.68680 | 0.83347 | 36915 ft | 431 kts | 142° |
| 2026-05-05 13:13 | 49.64044 | 0.89141 | 36919 ft | 431 kts | 142° |
| 2026-05-05 13:14 | 49.59394 | 0.94955 | 36906 ft | 431 kts | 142° |
| 2026-05-05 13:14 | 49.54727 | 1.00762 | 36903 ft | 431 kts | 142° |
| 2026-05-05 13:15 | 49.50053 | 1.06543 | 36899 ft | 430 kts | 142° |
| 2026-05-05 13:15 | 49.45389 | 1.12310 | 36892 ft | 430 kts | 142° |
| 2026-05-05 13:16 | 49.40734 | 1.18059 | 36890 ft | 430 kts | 142° |
| 2026-05-05 13:16 | 49.36064 | 1.23813 | 36890 ft | 430 kts | 142° |
| 2026-05-05 13:17 | 49.31393 | 1.29548 | 36894 ft | 430 kts | 142° |
| 2026-05-05 13:17 | 49.26756 | 1.35232 | 36887 ft | 430 kts | 142° |
| 2026-05-05 13:18 | 49.22078 | 1.40955 | 36890 ft | 430 kts | 142° |
| 2026-05-05 13:18 | 49.17394 | 1.46652 | 36887 ft | 430 kts | 142° |
| 2026-05-05 13:19 | 49.12704 | 1.52336 | 36886 ft | 430 kts | 142° |
| 2026-05-05 13:19 | 49.08028 | 1.58016 | 36884 ft | 430 kts | 142° |
| 2026-05-05 13:20 | 49.03342 | 1.63704 | 36869 ft | 431 kts | 142° |
| 2026-05-05 13:20 | 48.98659 | 1.69354 | 36866 ft | 432 kts | 142° |
| 2026-05-05 13:21 | 48.93953 | 1.75013 | 36860 ft | 432 kts | 142° |
| 2026-05-05 13:21 | 48.89235 | 1.80687 | 36857 ft | 431 kts | 142° |
| 2026-05-05 13:22 | 48.84527 | 1.86332 | 36852 ft | 431 kts | 142° |
| 2026-05-05 13:22 | 48.79811 | 1.91957 | 36845 ft | 431 kts | 143° |
| 2026-05-05 13:23 | 48.75097 | 1.97572 | 36837 ft | 431 kts | 142° |
| 2026-05-05 13:23 | 48.70385 | 2.03184 | 36830 ft | 431 kts | 142° |
| 2026-05-05 13:24 | 48.66457 | 2.07844 | 36840 ft | 431 kts | 143° |
| 2026-05-05 13:24 | 48.61730 | 2.13437 | 36841 ft | 432 kts | 142° |
| 2026-05-05 13:25 | 48.57010 | 2.19068 | 36838 ft | 433 kts | 139° |
| 2026-05-05 13:25 | 48.52726 | 2.25481 | 36837 ft | 434 kts | 136° |
| 2026-05-05 13:26 | 48.48475 | 2.31939 | 36833 ft | 434 kts | 136° |
| 2026-05-05 13:26 | 48.44215 | 2.38377 | 36828 ft | 434 kts | 136° |
| 2026-05-05 13:27 | 48.39945 | 2.44815 | 36826 ft | 435 kts | 136° |
| 2026-05-05 13:27 | 48.35697 | 2.51211 | 36823 ft | 436 kts | 136° |
| 2026-05-05 13:28 | 48.31406 | 2.57660 | 36809 ft | 436 kts | 136° |
| 2026-05-05 13:28 | 48.26737 | 2.63405 | 36821 ft | 434 kts | 151° |
| 2026-05-05 13:29 | 48.21300 | 2.67288 | 36822 ft | 433 kts | 155° |
| 2026-05-05 13:29 | 48.15930 | 2.71427 | 36822 ft | 434 kts | 152° |
| 2026-05-05 13:30 | 48.10649 | 2.75827 | 36818 ft | 435 kts | 152° |
| 2026-05-05 13:30 | 48.05224 | 2.79794 | 36819 ft | 434 kts | 158° |
| 2026-05-05 13:31 | 47.99665 | 2.83338 | 36823 ft | 434 kts | 158° |
| 2026-05-05 13:31 | 47.94100 | 2.86839 | 36821 ft | 434 kts | 158° |
| 2026-05-05 13:32 | 47.88580 | 2.90318 | 36818 ft | 434 kts | 158° |
| 2026-05-05 13:32 | 47.83023 | 2.93836 | 36823 ft | 434 kts | 158° |
| 2026-05-05 13:33 | 47.77476 | 2.97342 | 36823 ft | 433 kts | 158° |
| 2026-05-05 13:33 | 47.71933 | 3.00836 | 36825 ft | 432 kts | 158° |
| 2026-05-05 13:34 | 47.66388 | 3.04323 | 36829 ft | 433 kts | 158° |
| 2026-05-05 13:34 | 47.60843 | 3.07792 | 36830 ft | 433 kts | 158° |
| 2026-05-05 13:35 | 47.55292 | 3.11253 | 36834 ft | 433 kts | 159° |
| 2026-05-05 13:35 | 47.49782 | 3.14691 | 36835 ft | 433 kts | 159° |
| 2026-05-05 13:36 | 47.44231 | 3.18148 | 36833 ft | 433 kts | 159° |
| 2026-05-05 13:36 | 47.38681 | 3.21595 | 36835 ft | 433 kts | 159° |
| 2026-05-05 13:37 | 47.33127 | 3.25031 | 36840 ft | 433 kts | 159° |
| 2026-05-05 13:37 | 47.27574 | 3.28455 | 36841 ft | 433 kts | 159° |
| 2026-05-05 13:38 | 47.22009 | 3.31883 | 36842 ft | 433 kts | 159° |
| 2026-05-05 13:38 | 47.16456 | 3.35296 | 36849 ft | 432 kts | 159° |
| 2026-05-05 13:39 | 47.10910 | 3.38709 | 36857 ft | 433 kts | 159° |
| 2026-05-05 13:39 | 47.05381 | 3.42097 | 36859 ft | 433 kts | 159° |
| 2026-05-05 13:40 | 46.99821 | 3.45490 | 36862 ft | 433 kts | 159° |
| 2026-05-05 13:40 | 46.94261 | 3.48873 | 36858 ft | 433 kts | 159° |
| 2026-05-05 13:41 | 46.88700 | 3.52249 | 36861 ft | 433 kts | 160° |
| 2026-05-05 13:41 | 46.83131 | 3.55628 | 36855 ft | 433 kts | 160° |
| 2026-05-05 13:42 | 46.77567 | 3.59005 | 36859 ft | 433 kts | 159° |
| 2026-05-05 13:42 | 46.74913 | 3.61107 | 36864 ft | 437 kts | 148° |
| 2026-05-05 13:42 | 46.72614 | 3.63931 | 36861 ft | 441 kts | 136° |
| 2026-05-05 13:43 | 46.70715 | 3.67474 | 36856 ft | 446 kts | 124° |
| 2026-05-05 13:43 | 46.69346 | 3.71551 | 36860 ft | 451 kts | 112° |
| 2026-05-05 13:43 | 46.67755 | 3.80451 | 36859 ft | 455 kts | 107° |
| 2026-05-05 13:44 | 46.66236 | 3.89388 | 36865 ft | 455 kts | 107° |
| 2026-05-05 13:44 | 46.64703 | 3.98321 | 36861 ft | 455 kts | 107° |
| 2026-05-05 13:45 | 46.63155 | 4.07245 | 36858 ft | 455 kts | 107° |
| 2026-05-05 13:45 | 46.61596 | 4.16177 | 36864 ft | 455 kts | 108° |
| 2026-05-05 13:46 | 46.60034 | 4.25097 | 36862 ft | 455 kts | 108° |
| 2026-05-05 13:46 | 46.58463 | 4.34022 | 36861 ft | 455 kts | 108° |
| 2026-05-05 13:47 | 46.56885 | 4.42927 | 36860 ft | 455 kts | 108° |
| 2026-05-05 13:47 | 46.55314 | 4.51781 | 36863 ft | 455 kts | 108° |
| 2026-05-05 13:48 | 46.53729 | 4.60671 | 36865 ft | 455 kts | 108° |
| 2026-05-05 13:48 | 46.52128 | 4.69575 | 36867 ft | 455 kts | 108° |
| 2026-05-05 13:49 | 46.50532 | 4.78445 | 36866 ft | 455 kts | 108° |
| 2026-05-05 13:49 | 46.48922 | 4.87317 | 36864 ft | 455 kts | 108° |
| 2026-05-05 13:50 | 46.47298 | 4.96202 | 36865 ft | 455 kts | 108° |
| 2026-05-05 13:50 | 46.45673 | 5.05072 | 36864 ft | 456 kts | 109° |
| 2026-05-05 13:51 | 46.44045 | 5.13934 | 36872 ft | 458 kts | 109° |
| 2026-05-05 13:51 | 46.42399 | 5.22862 | 36851 ft | 459 kts | 109° |
| 2026-05-05 13:52 | 46.40750 | 5.31787 | 36873 ft | 458 kts | 109° |
| 2026-05-05 13:52 | 46.39090 | 5.40702 | 36874 ft | 458 kts | 109° |
| 2026-05-05 13:53 | 46.37427 | 5.49608 | 36874 ft | 458 kts | 109° |
| 2026-05-05 13:53 | 46.35775 | 5.58513 | 36874 ft | 458 kts | 109° |
| 2026-05-05 13:54 | 46.34101 | 5.67435 | 36885 ft | 462 kts | 109° |
| 2026-05-05 13:54 | 46.32405 | 5.76425 | 36894 ft | 463 kts | 109° |
| 2026-05-05 13:55 | 46.30701 | 5.85412 | 36904 ft | 463 kts | 109° |
| 2026-05-05 13:55 | 46.28995 | 5.94411 | 36915 ft | 464 kts | 109° |
| 2026-05-05 13:56 | 46.27291 | 6.03344 | 36912 ft | 463 kts | 110° |
| 2026-05-05 13:56 | 46.25005 | 6.11953 | 36921 ft | 454 kts | 125° |
| 2026-05-05 13:57 | 46.21107 | 6.18970 | 36924 ft | 443 kts | 142° |
| 2026-05-05 13:57 | 46.16579 | 6.25017 | 36918 ft | 444 kts | 142° |
| 2026-05-05 13:58 | 46.12072 | 6.31048 | 36897 ft | 444 kts | 142° |
| 2026-05-05 13:58 | 46.07534 | 6.37112 | 36872 ft | 444 kts | 142° |
| 2026-05-05 13:59 | 46.00723 | 6.46177 | 36892 ft | 444 kts | 142° |
| 2026-05-05 14:00 | 45.94675 | 6.54188 | 36894 ft | 444 kts | 143° |
| 2026-05-05 14:00 | 45.89369 | 6.61205 | 36884 ft | 444 kts | 143° |
| 2026-05-05 14:01 | 45.84828 | 6.67206 | 36892 ft | 444 kts | 143° |
| 2026-05-05 14:01 | 45.80308 | 6.73147 | 36893 ft | 442 kts | 143° |
| 2026-05-05 14:02 | 45.75766 | 6.79083 | 36888 ft | 442 kts | 144° |
| 2026-05-05 14:02 | 45.71208 | 6.85008 | 36899 ft | 443 kts | 144° |
| 2026-05-05 14:03 | 45.66642 | 6.90934 | 36918 ft | 443 kts | 144° |
| 2026-05-05 14:03 | 45.62081 | 6.96855 | 36918 ft | 443 kts | 144° |
| 2026-05-05 14:04 | 45.57507 | 7.02781 | 36922 ft | 444 kts | 144° |
| 2026-05-05 14:04 | 45.53029 | 7.08854 | 36942 ft | 449 kts | 137° |
| 2026-05-05 14:05 | 45.49526 | 7.16310 | 36939 ft | 458 kts | 128° |
| 2026-05-05 14:05 | 45.46167 | 7.24018 | 36959 ft | 458 kts | 129° |
| 2026-05-05 14:06 | 45.42790 | 7.31711 | 36979 ft | 458 kts | 129° |
| 2026-05-05 14:06 | 45.38915 | 7.38738 | 36984 ft | 443 kts | 144° |
| 2026-05-05 14:07 | 45.35811 | 7.42413 | 36983 ft | 438 kts | 148° |
| 2026-05-05 14:08 | 45.32472 | 7.46398 | 36976 ft | 436 kts | 147° |
| 2026-05-05 14:08 | 45.27751 | 7.51833 | 36999 ft | 437 kts | 149° |
| 2026-05-05 14:09 | 45.22979 | 7.57203 | 37003 ft | 438 kts | 148° |
| 2026-05-05 14:09 | 45.18227 | 7.62600 | 37002 ft | 438 kts | 148° |
| 2026-05-05 14:10 | 45.13485 | 7.68039 | 37002 ft | 438 kts | 148° |
| 2026-05-05 14:10 | 45.08742 | 7.73467 | 36969 ft | 438 kts | 148° |
| 2026-05-05 14:11 | 45.04019 | 7.78847 | 36969 ft | 438 kts | 148° |
| 2026-05-05 14:11 | 44.99257 | 7.84261 | 36966 ft | 438 kts | 148° |
| 2026-05-05 14:12 | 44.94508 | 7.89662 | 36964 ft | 438 kts | 148° |
| 2026-05-05 14:12 | 44.89754 | 7.95049 | 36961 ft | 438 kts | 148° |
| 2026-05-05 14:13 | 44.84989 | 8.00427 | 36966 ft | 439 kts | 148° |
| 2026-05-05 14:13 | 44.80203 | 8.05815 | 36966 ft | 440 kts | 148° |
| 2026-05-05 14:14 | 44.75436 | 8.11166 | 36965 ft | 441 kts | 148° |
| 2026-05-05 14:14 | 44.70640 | 8.16539 | 36958 ft | 441 kts | 148° |
| 2026-05-05 14:15 | 44.65835 | 8.21921 | 36963 ft | 442 kts | 148° |
| 2026-05-05 14:15 | 44.61031 | 8.27305 | 36964 ft | 442 kts | 148° |
| 2026-05-05 14:16 | 44.57035 | 8.31770 | 36961 ft | 442 kts | 148° |
| 2026-05-05 14:16 | 44.52214 | 8.37130 | 36968 ft | 443 kts | 148° |
| 2026-05-05 14:17 | 44.47396 | 8.42468 | 36960 ft | 444 kts | 148° |
| 2026-05-05 14:17 | 44.42550 | 8.47833 | 36968 ft | 444 kts | 148° |
| 2026-05-05 14:18 | 44.37697 | 8.53190 | 36963 ft | 444 kts | 148° |
| 2026-05-05 14:18 | 44.32849 | 8.58551 | 36973 ft | 444 kts | 148° |
| 2026-05-05 14:19 | 44.27995 | 8.63904 | 36940 ft | 444 kts | 149° |
| 2026-05-05 14:19 | 44.23121 | 8.69249 | 36960 ft | 445 kts | 149° |
| 2026-05-05 14:20 | 44.18258 | 8.74617 | 36888 ft | 447 kts | 148° |
| 2026-05-05 14:20 | 44.15858 | 8.77384 | 36418 ft | 449 kts | 147° |
| 2026-05-05 14:20 | 44.13575 | 8.80083 | 35979 ft | 451 kts | 147° |
| 2026-05-05 14:21 | 44.11223 | 8.82896 | 35544 ft | 452 kts | 147° |
| 2026-05-05 14:21 | 44.08840 | 8.85743 | 35102 ft | 452 kts | 147° |
| 2026-05-05 14:21 | 44.06437 | 8.88591 | 34603 ft | 453 kts | 148° |
| 2026-05-05 14:21 | 44.04023 | 8.91431 | 34138 ft | 456 kts | 147° |
| 2026-05-05 14:22 | 44.01883 | 8.94740 | 33731 ft | 468 kts | 131° |
| 2026-05-05 14:22 | 44.00289 | 8.98716 | 33178 ft | 472 kts | 124° |
| 2026-05-05 14:22 | 43.98797 | 9.02766 | 32655 ft | 469 kts | 124° |
| 2026-05-05 14:22 | 43.97327 | 9.06789 | 32161 ft | 465 kts | 123° |
| 2026-05-05 14:23 | 43.95875 | 9.10773 | 31655 ft | 461 kts | 123° |
| 2026-05-05 14:23 | 43.94427 | 9.14731 | 31178 ft | 457 kts | 123° |
| 2026-05-05 14:23 | 43.92990 | 9.18631 | 30709 ft | 452 kts | 123° |
| 2026-05-05 14:23 | 43.91554 | 9.22496 | 30256 ft | 448 kts | 123° |
| 2026-05-05 14:24 | 43.90127 | 9.26321 | 29722 ft | 443 kts | 123° |
| 2026-05-05 14:24 | 43.88718 | 9.30089 | 28988 ft | 439 kts | 123° |
| 2026-05-05 14:24 | 43.87321 | 9.33828 | 28263 ft | 434 kts | 123° |
| 2026-05-05 14:25 | 43.86077 | 9.37154 | 27637 ft | 431 kts | 123° |
| 2026-05-05 14:25 | 43.84708 | 9.40822 | 26956 ft | 427 kts | 123° |
| 2026-05-05 14:25 | 43.83352 | 9.44462 | 26280 ft | 423 kts | 123° |
| 2026-05-05 14:25 | 43.82004 | 9.48071 | 25613 ft | 420 kts | 123° |
| 2026-05-05 14:26 | 43.80667 | 9.51640 | 25002 ft | 417 kts | 123° |
| 2026-05-05 14:26 | 43.79337 | 9.55190 | 24415 ft | 413 kts | 123° |
| 2026-05-05 14:26 | 43.78018 | 9.58701 | 23822 ft | 410 kts | 123° |
| 2026-05-05 14:26 | 43.76705 | 9.62185 | 23175 ft | 406 kts | 123° |
| 2026-05-05 14:27 | 43.75406 | 9.65627 | 22515 ft | 401 kts | 123° |
| 2026-05-05 14:27 | 43.74120 | 9.69031 | 21890 ft | 395 kts | 123° |
| 2026-05-05 14:27 | 43.72853 | 9.72376 | 21263 ft | 390 kts | 123° |
| 2026-05-05 14:27 | 43.71605 | 9.75675 | 20644 ft | 384 kts | 123° |
| 2026-05-05 14:28 | 43.70391 | 9.78880 | 20039 ft | 379 kts | 123° |
| 2026-05-05 14:28 | 43.69179 | 9.82082 | 19441 ft | 374 kts | 123° |
| 2026-05-05 14:28 | 43.67968 | 9.85284 | 18821 ft | 369 kts | 123° |
| 2026-05-05 14:28 | 43.66797 | 9.88371 | 18228 ft | 365 kts | 123° |
| 2026-05-05 14:29 | 43.65626 | 9.91447 | 17554 ft | 360 kts | 123° |
| 2026-05-05 14:29 | 43.64468 | 9.94486 | 16869 ft | 357 kts | 123° |
| 2026-05-05 14:29 | 43.63315 | 9.97512 | 16204 ft | 353 kts | 123° |
| 2026-05-05 14:29 | 43.62172 | 10.00501 | 15564 ft | 350 kts | 123° |
| 2026-05-05 14:30 | 43.61039 | 10.03459 | 14930 ft | 347 kts | 123° |
| 2026-05-05 14:30 | 43.59912 | 10.06395 | 14344 ft | 347 kts | 123° |
| 2026-05-05 14:30 | 43.58789 | 10.09329 | 14014 ft | 345 kts | 122° |
| 2026-05-05 14:30 | 43.57668 | 10.12254 | 13642 ft | 343 kts | 123° |
| 2026-05-05 14:31 | 43.56553 | 10.15161 | 13134 ft | 345 kts | 122° |
| 2026-05-05 14:31 | 43.55427 | 10.18097 | 12616 ft | 347 kts | 122° |
| 2026-05-05 14:31 | 43.54297 | 10.21038 | 12092 ft | 348 kts | 122° |
| 2026-05-05 14:31 | 43.53159 | 10.23996 | 11589 ft | 349 kts | 121° |
| 2026-05-05 14:32 | 43.52023 | 10.26941 | 11103 ft | 349 kts | 121° |
| 2026-05-05 14:32 | 43.50886 | 10.29888 | 10606 ft | 346 kts | 121° |
| 2026-05-05 14:32 | 43.49915 | 10.32897 | 10121 ft | 343 kts | 105° |
| 2026-05-05 14:32 | 43.49913 | 10.36130 | 9621 ft | 338 kts | 76° |
| 2026-05-05 14:33 | 43.50975 | 10.38895 | 9101 ft | 329 kts | 46° |
| 2026-05-05 14:33 | 43.52665 | 10.40959 | 8589 ft | 321 kts | 36° |
| 2026-05-05 14:33 | 43.54445 | 10.42750 | 8239 ft | 310 kts | 33° |
| 2026-05-05 14:33 | 43.56191 | 10.44399 | 7988 ft | 297 kts | 32° |
| 2026-05-05 14:34 | 43.57869 | 10.45988 | 7738 ft | 288 kts | 33° |
| 2026-05-05 14:34 | 43.59483 | 10.47555 | 7499 ft | 279 kts | 33° |
| 2026-05-05 14:34 | 43.61039 | 10.49105 | 7254 ft | 272 kts | 34° |
| 2026-05-05 14:34 | 43.62544 | 10.50631 | 7005 ft | 265 kts | 34° |
| 2026-05-05 14:35 | 43.63998 | 10.52123 | 6761 ft | 255 kts | 35° |
| 2026-05-05 14:35 | 43.65412 | 10.53583 | 6536 ft | 252 kts | 35° |
| 2026-05-05 14:35 | 43.66790 | 10.55009 | 6350 ft | 249 kts | 35° |
| 2026-05-05 14:35 | 43.68191 | 10.56461 | 6221 ft | 249 kts | 35° |
| 2026-05-05 14:36 | 43.69576 | 10.57898 | 6088 ft | 247 kts | 36° |
| 2026-05-05 14:36 | 43.70922 | 10.59296 | 5960 ft | 244 kts | 36° |
| 2026-05-05 14:36 | 43.72275 | 10.60700 | 5834 ft | 242 kts | 36° |
| 2026-05-05 14:36 | 43.73624 | 10.62097 | 5703 ft | 240 kts | 35° |
| 2026-05-05 14:37 | 43.74935 | 10.63455 | 5583 ft | 232 kts | 35° |
| 2026-05-05 14:37 | 43.76210 | 10.64778 | 5442 ft | 225 kts | 36° |
| 2026-05-05 14:37 | 43.77455 | 10.66037 | 5323 ft | 219 kts | 29° |
| 2026-05-05 14:37 | 43.78845 | 10.66711 | 5197 ft | 208 kts | 2° |
| 2026-05-05 14:38 | 43.80251 | 10.66573 | 5076 ft | 200 kts | 338° |
| 2026-05-05 14:38 | 43.81461 | 10.65738 | 4967 ft | 189 kts | 316° |
| 2026-05-05 14:38 | 43.82358 | 10.64500 | 4837 ft | 180 kts | 307° |
| 2026-05-05 14:38 | 43.83212 | 10.63235 | 4676 ft | 180 kts | 308° |
| 2026-05-05 14:39 | 43.84069 | 10.61972 | 4522 ft | 180 kts | 308° |
| 2026-05-05 14:39 | 43.84923 | 10.60713 | 4366 ft | 179 kts | 308° |
| 2026-05-05 14:39 | 43.85768 | 10.59466 | 4227 ft | 176 kts | 308° |
| 2026-05-05 14:39 | 43.86472 | 10.58128 | 4061 ft | 167 kts | 290° |
| 2026-05-05 14:40 | 43.86730 | 10.56617 | 3916 ft | 159 kts | 269° |
| 2026-05-05 14:40 | 43.86566 | 10.55138 | 3765 ft | 155 kts | 250° |
| 2026-05-05 14:40 | 43.86025 | 10.53857 | 3673 ft | 155 kts | 231° |
| 2026-05-05 14:40 | 43.85351 | 10.52716 | 3600 ft | 155 kts | 232° |
| 2026-05-05 14:41 | 43.84673 | 10.51557 | 3557 ft | 155 kts | 232° |
| 2026-05-05 14:41 | 43.83987 | 10.50405 | 3555 ft | 155 kts | 228° |
| 2026-05-05 14:41 | 43.83099 | 10.49532 | 3342 ft | 157 kts | 207° |
| 2026-05-05 14:41 | 43.82105 | 10.48918 | 3137 ft | 155 kts | 206° |
| 2026-05-05 14:42 | 43.81159 | 10.48328 | 2976 ft | 141 kts | 206° |
| 2026-05-05 14:42 | 43.80286 | 10.47781 | 2761 ft | 134 kts | 207° |
| 2026-05-05 14:42 | 43.79424 | 10.47236 | 2580 ft | 136 kts | 207° |
| 2026-05-05 14:42 | 43.78540 | 10.46676 | 2389 ft | 141 kts | 207° |
| 2026-05-05 14:43 | 43.77631 | 10.46075 | 2170 ft | 149 kts | 207° |
| 2026-05-05 14:43 | 43.76701 | 10.45422 | 1858 ft | 150 kts | 207° |
| 2026-05-05 14:43 | 43.75778 | 10.44763 | 1625 ft | 145 kts | 208° |
| 2026-05-05 14:43 | 43.74873 | 10.44142 | 1321 ft | 144 kts | 207° |
| 2026-05-05 14:44 | 43.73963 | 10.43662 | 1096 ft | 136 kts | 200° |
| 2026-05-05 14:44 | 43.73065 | 10.43355 | 870 ft | 135 kts | 196° |
| 2026-05-05 14:44 | 43.72167 | 10.42953 | 691 ft | 136 kts | 206° |
| 2026-05-05 14:44 | 43.71342 | 10.42351 | 521 ft | 134 kts | 212° |
| 2026-05-05 14:45 | 43.70555 | 10.41653 | 368 ft | 134 kts | 216° |
| 2026-05-05 14:45 | 43.69808 | 10.40905 | 173 ft | 132 kts | 219° |
| 2026-05-05 14:45 | 43.69076 | 10.40149 | 29 ft | 125 kts | 219° |
| 2026-05-05 14:45 | 43.68453 | 10.39505 | 20 ft | 93 kts | 217° |
| 2026-05-05 14:46 | 43.68063 | 10.39103 | 16 ft | 53 kts | 217° |
| 2026-05-05 14:46 | 43.67810 | 10.38842 | 19 ft | 35 kts | 217° |
| 2026-05-05 14:46 | 43.67675 | 10.38703 | 18 ft | 19 kts | 216° |
| 2026-05-05 14:46 | 43.67594 | 10.38619 | 19 ft | 10 kts | 217° |
| 2026-05-05 14:47 | 43.67553 | 10.38575 | 20 ft | 8 kts | 219° |
| 2026-05-05 14:47 | 43.67554 | 10.38461 | 16 ft | 19 kts | 308° |
| 2026-05-05 14:47 | 43.67622 | 10.38349 | 13 ft | 14 kts | 325° |
| 2026-05-05 14:47 | 43.67716 | 10.38414 | 15 ft | 18 kts | 38° |
| 2026-05-05 14:48 | 43.67807 | 10.38509 | 16 ft | 18 kts | 37° |
| 2026-05-05 14:48 | 43.67920 | 10.38626 | 16 ft | 23 kts | 37° |
| 2026-05-05 14:48 | 43.68061 | 10.38771 | 13 ft | 28 kts | 37° |
| 2026-05-05 14:48 | 43.68234 | 10.38948 | 14 ft | 33 kts | 37° |
| 2026-05-05 14:49 | 43.68430 | 10.39151 | 17 ft | 38 kts | 37° |
| 2026-05-05 14:49 | 43.68593 | 10.39320 | 18 ft | 21 kts | 37° |
| 2026-05-05 14:49 | 43.68729 | 10.39460 | 19 ft | 27 kts | 37° |
| 2026-05-05 14:49 | 43.68895 | 10.39631 | 18 ft | 33 kts | 37° |
| 2026-05-05 14:50 | 43.69076 | 10.39817 | 20 ft | 21 kts | 37° |
| 2026-05-05 14:50 | 43.69170 | 10.39909 | 24 ft | 17 kts | 28° |
| 2026-05-05 14:50 | 43.69273 | 10.39909 | 19 ft | 18 kts | 353° |
| 2026-05-05 14:50 | 43.69381 | 10.39892 | 16 ft | 13 kts | 355° |
| 2026-05-05 14:51 | 43.69495 | 10.39909 | 16 ft | 19 kts | 9° |
| 2026-05-05 14:51 | 43.69594 | 10.39931 | 15 ft | 13 kts | 9° |
| 2026-05-05 14:51 | 43.69659 | 10.39947 | 15 ft | 8 kts | 12° |
| 2026-05-05 14:51 | 43.69710 | 10.39963 | 15 ft | 7 kts | 9° |
| 2026-05-05 14:52 | 43.69742 | 10.39970 | 15 ft | 2 kts | 8° |
| 2026-05-05 14:52 | 43.69753 | 10.39973 | 15 ft | 2 kts | 9° |
| 2026-05-05 14:52 | 43.69757 | 10.39974 | 15 ft | 0 kts | 8° |